createdAt,value
2019-02-11T00:02:59.871Z,72.84
2019-02-11T00:07:07.310Z,73.24
2019-02-11T00:11:15.012Z,73.30
2019-02-11T00:15:22.508Z,73.42
2019-02-11T00:19:29.908Z,73.37
2019-02-11T00:23:37.493Z,73.28
2019-02-11T00:27:46.380Z,72.90
2019-02-11T00:31:53.947Z,72.82
2019-02-11T00:36:01.838Z,72.99
2019-02-11T00:40:09.767Z,73.28
2019-02-11T00:44:17.152Z,73.67
2019-02-11T00:48:25.058Z,73.67
2019-02-11T00:52:32.651Z,73.42
2019-02-11T00:56:40.552Z,73.73
2019-02-11T01:00:48.155Z,74.49
2019-02-11T01:04:55.561Z,74.17
2019-02-11T01:09:04.478Z,73.66
2019-02-11T01:13:12.370Z,73.59
2019-02-11T01:17:19.974Z,73.57
2019-02-11T01:21:27.862Z,73.36
2019-02-11T01:25:35.785Z,73.52
2019-02-11T01:29:43.151Z,73.84
2019-02-11T01:33:51.048Z,73.80
2019-02-11T01:37:58.664Z,74.22
2019-02-11T01:42:06.174Z,74.40
2019-02-11T01:46:14.084Z,74.15
2019-02-11T01:50:21.474Z,73.92
2019-02-11T01:54:28.888Z,74.35
2019-02-11T01:58:36.779Z,74.25
2019-02-11T02:02:44.183Z,73.90
2019-02-11T02:06:52.065Z,74.40
2019-02-11T02:10:59.940Z,74.48
2019-02-11T02:15:07.682Z,74.48
2019-02-11T02:19:15.139Z,74.35
2019-02-11T02:23:22.627Z,74.08
2019-02-11T02:27:29.996Z,73.85
2019-02-11T02:31:37.895Z,73.89
2019-02-11T02:35:45.779Z,74.29
2019-02-11T02:39:53.158Z,74.35
2019-02-11T02:44:01.052Z,74.14
2019-02-11T02:48:08.956Z,74.23
2019-02-11T02:52:16.341Z,74.36
2019-02-11T02:56:24.222Z,74.05
2019-02-11T03:00:31.718Z,74.39
2019-02-11T03:04:39.100Z,74.59
2019-02-11T03:08:46.675Z,74.35
2019-02-11T03:12:54.166Z,74.06
2019-02-11T03:17:01.659Z,73.97
2019-02-11T03:21:10.010Z,74.03
2019-02-11T03:25:17.509Z,73.72
2019-02-11T03:29:25.399Z,73.57
2019-02-11T03:33:33.287Z,73.89
2019-02-11T03:37:40.687Z,73.97
2019-02-11T03:41:48.598Z,74.54
2019-02-11T03:45:56.479Z,74.33
2019-02-11T03:50:04.010Z,73.69
2019-02-11T03:54:12.183Z,73.87
2019-02-11T03:58:20.180Z,73.97
2019-02-11T04:02:27.548Z,73.79
2019-02-11T04:06:35.443Z,73.66
2019-02-11T06:56:12.724Z,70.74
2019-02-11T07:00:21.340Z,68.90
2019-02-11T07:04:29.550Z,68.43
2019-02-11T07:08:37.114Z,68.09
2019-02-11T07:12:45.421Z,68.11
2019-02-11T07:16:53.605Z,68.23
2019-02-11T07:21:01.423Z,68.68
2019-02-11T07:25:09.990Z,68.63
2019-02-11T07:29:18.314Z,68.37
2019-02-11T07:33:26.512Z,68.47
2019-02-11T07:37:34.888Z,67.17
2019-02-11T07:42:02.517Z,67.47
2019-02-11T07:46:27.297Z,66.42
2019-02-11T07:50:35.629Z,65.61
2019-02-11T07:54:44.114Z,66.51
2019-02-11T07:58:51.914Z,65.73
2019-02-11T08:03:00.516Z,65.06
2019-02-11T08:07:08.599Z,64.79
2019-02-11T08:11:20.267Z,64.41
2019-02-11T08:15:28.585Z,63.24
2019-02-11T08:19:36.801Z,62.18
2019-02-11T08:23:44.568Z,61.89
2019-02-11T08:27:54.781Z,61.84
2019-02-11T08:32:03.039Z,60.61
2019-02-11T08:36:11.087Z,59.40
2019-02-11T08:40:18.820Z,59.72
2019-02-11T08:44:26.631Z,58.10
2019-02-11T08:48:34.663Z,58.10
2019-02-11T08:52:42.867Z,57.19
2019-02-11T08:56:50.465Z,57.07
2019-02-11T09:00:58.886Z,58.07
2019-02-11T09:05:08.034Z,55.73
2019-02-11T09:09:15.942Z,54.53
2019-02-11T09:13:24.070Z,53.04
2019-02-11T09:17:31.867Z,55.08
2019-02-11T09:21:39.468Z,53.63
2019-02-11T09:25:47.381Z,53.33
2019-02-11T09:29:55.285Z,53.48
2019-02-11T09:34:02.910Z,51.92
2019-02-11T09:38:11.222Z,51.56
2019-02-11T09:42:18.922Z,51.36
2019-02-11T09:46:26.647Z,50.59
2019-02-11T09:50:37.928Z,49.70
2019-02-11T09:54:46.321Z,49.92
2019-02-11T09:58:54.415Z,48.88
2019-02-11T10:03:02.467Z,48.12
2019-02-11T10:07:10.092Z,47.78
2019-02-11T10:11:17.912Z,46.66
2019-02-11T10:15:25.821Z,49.26
2019-02-11T10:19:33.427Z,48.65
2019-02-11T10:23:41.726Z,47.42
2019-02-11T10:27:49.704Z,47.55
2019-02-11T10:31:57.663Z,47.35
2019-02-11T10:36:05.592Z,46.28
2019-02-11T10:40:13.972Z,45.02
2019-02-11T10:44:21.570Z,45.74
2019-02-11T10:48:30.475Z,45.50
2019-02-11T10:52:38.021Z,46.03
2019-02-11T10:56:51.956Z,45.21
2019-02-11T11:01:00.093Z,45.04
2019-02-11T11:05:08.822Z,44.13
2019-02-11T11:09:17.416Z,44.57
2019-02-11T11:13:27.563Z,44.27
2019-02-11T11:17:35.484Z,45.41
2019-02-11T11:21:44.303Z,45.65
2019-02-11T11:25:52.689Z,46.22
2019-02-11T11:30:00.468Z,45.79
2019-02-11T11:34:08.311Z,46.61
2019-02-11T11:38:16.408Z,46.43
2019-02-11T11:42:24.639Z,45.95
2019-02-11T11:46:46.735Z,46.01
2019-02-11T11:50:47.934Z,46.40
2019-02-11T11:54:55.863Z,46.53
2019-02-11T11:59:04.022Z,46.72
2019-02-11T12:03:11.728Z,46.21
2019-02-11T12:07:19.933Z,45.70
2019-02-11T12:11:28.149Z,45.15
2019-02-11T12:15:36.006Z,45.16
2019-02-11T12:19:44.308Z,45.31
2019-02-11T12:23:52.506Z,45.78
2019-02-11T12:28:00.219Z,45.85
2019-02-11T12:32:08.430Z,44.99
2019-02-11T12:36:16.751Z,44.34
2019-02-11T12:40:24.458Z,44.82
2019-02-11T12:44:32.372Z,45.13
2019-02-11T12:48:40.188Z,44.86
2019-02-11T12:52:48.714Z,44.87
2019-02-11T12:56:56.928Z,45.07
2019-02-11T13:01:05.086Z,45.46
2019-02-11T13:05:12.802Z,46.46
2019-02-11T13:09:20.755Z,46.93
2019-02-11T13:13:28.592Z,47.01
2019-02-11T13:17:36.400Z,47.66
2019-02-11T13:21:44.206Z,47.40
2019-02-11T13:25:52.014Z,48.42
2019-02-11T13:29:59.881Z,49.20
2019-02-11T13:34:07.826Z,49.68
2019-02-11T13:38:15.849Z,50.24
2019-02-11T13:42:24.184Z,51.00
2019-02-11T13:46:31.965Z,51.56
2019-02-11T13:50:39.634Z,52.01
2019-02-11T13:54:47.585Z,52.86
2019-02-11T13:58:55.615Z,52.83
2019-02-11T14:03:04.773Z,52.28
2019-02-11T14:07:14.939Z,52.22
2019-02-11T14:11:22.852Z,52.49
2019-02-11T14:15:30.649Z,52.00
2019-02-11T14:19:38.693Z,52.38
2019-02-11T14:23:46.977Z,52.84
2019-02-11T14:27:55.239Z,53.32
2019-02-11T14:32:03.520Z,53.47
2019-02-11T14:36:13.484Z,54.16
2019-02-11T14:40:23.299Z,53.81
2019-02-11T14:44:34.809Z,54.52
2019-02-11T14:48:46.019Z,54.49
2019-02-11T14:52:57.548Z,54.25
2019-02-11T14:57:05.745Z,54.58
2019-02-11T15:01:14.064Z,55.46
2019-02-11T15:05:21.869Z,56.12
2019-02-11T15:09:30.193Z,56.46
2019-02-11T15:13:37.744Z,56.61
2019-02-11T15:17:45.491Z,57.28
2019-02-11T15:21:53.723Z,57.81
2019-02-11T15:26:01.440Z,58.80
2019-02-11T15:30:11.622Z,59.04
2019-02-11T15:34:20.310Z,59.42
2019-02-11T15:38:28.144Z,60.57
2019-02-11T15:42:36.366Z,61.39
2019-02-11T15:46:44.468Z,62.27
2019-02-11T15:50:52.180Z,63.02
2019-02-11T15:55:00.401Z,63.96
2019-02-11T15:59:09.285Z,64.77
2019-02-11T16:03:17.048Z,65.05
2019-02-11T16:07:25.315Z,65.17
2019-02-11T16:11:33.489Z,66.05
2019-02-11T16:15:40.986Z,66.50
2019-02-11T16:19:48.938Z,66.61
2019-02-11T16:23:56.921Z,66.59
2019-02-11T16:28:04.833Z,67.04
2019-02-11T16:32:16.077Z,66.86
2019-02-11T16:36:23.968Z,66.64
2019-02-11T16:40:31.654Z,67.18
2019-02-11T16:44:39.573Z,66.46
2019-02-11T16:48:47.276Z,66.03
2019-02-11T16:52:55.179Z,66.03
2019-02-11T16:57:03.108Z,66.19
2019-02-11T17:01:10.829Z,66.08
2019-02-11T17:05:18.530Z,66.95
2019-02-11T17:09:31.416Z,67.16
2019-02-11T17:13:39.238Z,66.61
2019-02-11T17:17:47.271Z,67.68
2019-02-11T17:21:55.081Z,67.77
2019-02-11T17:26:02.776Z,67.85
2019-02-11T17:30:13.774Z,67.46
2019-02-11T17:34:22.042Z,66.25
2019-02-11T17:38:29.798Z,66.01
2019-02-11T17:42:38.031Z,66.05
2019-02-11T17:46:46.032Z,66.30
2019-02-11T17:50:53.836Z,66.86
2019-02-11T17:55:02.171Z,66.41
2019-02-11T17:59:10.512Z,65.91
2019-02-11T18:03:18.285Z,66.38
2019-02-11T18:07:26.215Z,67.25
2019-02-11T18:11:34.024Z,66.40
2019-02-11T18:15:42.188Z,66.78
2019-02-11T18:19:50.156Z,66.70
2019-02-11T18:23:57.769Z,66.92
2019-02-11T18:28:06.079Z,67.25
2019-02-11T18:32:15.008Z,67.24
2019-02-11T18:36:22.466Z,67.79
2019-02-11T18:40:30.432Z,67.68
2019-02-11T18:44:38.352Z,67.43
2019-02-11T18:48:46.065Z,68.29
2019-02-11T18:52:53.966Z,68.29
2019-02-11T18:57:01.886Z,68.64
2019-02-11T19:01:09.676Z,68.99
2019-02-11T19:05:18.534Z,68.43
2019-02-11T19:09:26.351Z,68.67
2019-02-11T19:13:34.085Z,69.09
2019-02-11T19:17:42.349Z,68.05
2019-02-11T19:21:49.987Z,69.02
2019-02-11T19:25:58.388Z,69.84
2019-02-11T19:30:08.268Z,70.22
2019-02-11T19:34:16.881Z,70.81
2019-02-11T19:38:25.218Z,70.94
2019-02-11T19:42:33.847Z,70.84
2019-02-11T19:46:41.649Z,70.97
2019-02-11T19:50:49.984Z,70.42
2019-02-11T19:54:58.076Z,71.81
2019-02-11T19:59:06.040Z,71.36
2019-02-11T20:03:15.544Z,72.45
2019-02-11T20:07:23.754Z,72.27
2019-02-11T20:11:31.576Z,71.99
2019-02-11T20:15:39.810Z,71.68
2019-02-11T20:19:47.586Z,71.20
2019-02-11T20:23:56.343Z,71.17
2019-02-11T20:28:04.667Z,70.67
2019-02-11T20:32:12.309Z,69.90
2019-02-11T20:36:21.255Z,69.26
2019-02-11T20:40:29.707Z,69.72
2019-02-11T20:44:37.964Z,69.89
2019-02-11T20:48:45.552Z,69.80
2019-02-11T20:52:53.762Z,70.83
2019-02-11T20:57:03.227Z,70.49
2019-02-11T21:01:11.240Z,70.48
2019-02-11T21:05:19.532Z,71.49
2019-02-11T21:09:27.570Z,71.30
2019-02-11T21:13:36.298Z,71.44
2019-02-11T21:17:44.425Z,70.59
2019-02-11T21:21:52.241Z,70.23
2019-02-11T21:26:00.343Z,69.08
2019-02-11T21:30:10.018Z,67.77
2019-02-11T21:34:18.630Z,67.37
2019-02-11T21:38:26.944Z,65.83
2019-02-11T21:42:35.065Z,65.44
2019-02-11T21:46:43.284Z,65.89
2019-02-11T21:50:51.093Z,65.36
2019-02-11T21:54:59.232Z,66.11
2019-02-11T21:59:07.110Z,65.75
2019-02-11T22:03:16.274Z,65.99
2019-02-11T22:07:24.737Z,65.61
2019-02-11T22:11:32.689Z,67.25
2019-02-11T22:15:40.930Z,67.54
2019-02-11T22:19:48.733Z,66.81
2019-02-11T22:23:56.784Z,67.32
2019-02-11T22:28:04.965Z,67.17
2019-02-11T22:32:12.663Z,67.18
2019-02-11T22:36:21.050Z,67.16
2019-02-11T22:40:29.498Z,66.54
2019-02-11T22:44:37.432Z,67.43
2019-02-11T22:48:45.746Z,68.46
2019-02-11T22:52:54.058Z,68.72
2019-02-11T22:57:01.685Z,68.18
2019-02-11T23:01:10.815Z,68.09
2019-02-11T23:05:18.839Z,67.11
2019-02-11T23:09:26.532Z,67.55
2019-02-11T23:13:34.945Z,67.83
2019-02-11T23:17:43.285Z,68.06
2019-02-11T23:21:51.189Z,68.63
2019-02-11T23:25:59.508Z,69.78
2019-02-11T23:30:13.622Z,70.69
2019-02-11T23:34:17.606Z,69.91
2019-02-11T23:38:25.611Z,69.10
2019-02-11T23:42:33.612Z,68.73
2019-02-11T23:46:41.864Z,69.45
2019-02-11T23:50:50.183Z,69.22
2019-02-11T23:54:58.190Z,68.58
2019-02-11T23:59:06.827Z,69.02
